Time;durP1;ratioP1;P1;durP2;ratioP2;P2;SDS_P1;SDS_P2;PMS_P1;PMS_P2;Temp;Humidity;BMP_temperature;BMP_pressure;BME280_temperature;BME280_humidity;BME280_pressure;Samples;Min_cycle;Max_cycle;Signal;HPM_P1;HPM_P2
2023/01/05 00:00:49;;;;;;;28.17;4.82;;;9.40;95.60;;;;;;4842738;29;20092;-79
2023/01/05 00:03:15;;;;;;;26.65;4.63;;;9.40;95.80;;;;;;4831348;29;20139;-79
2023/01/05 00:05:40;;;;;;;30.15;4.20;;;9.40;95.90;;;;;;4833176;29;20451;-79
2023/01/05 00:08:06;;;;;;;27.65;3.75;;;9.40;96.00;;;;;;4832446;29;20042;-79
2023/01/05 00:24:22;;;;;;;29.13;3.80;;;9.30;95.90;;;;;;4833920;29;20077;-78
2023/01/05 00:26:48;;;;;;;20.50;3.35;;;9.40;95.80;;;;;;4827251;29;20073;-79
2023/01/05 00:29:13;;;;;;;24.67;3.78;;;9.40;95.70;;;;;;4828691;29;20050;-79
2023/01/05 00:31:39;;;;;;;33.15;4.25;;;9.40;95.60;;;;;;4831590;29;20098;-79
2023/01/05 00:34:04;;;;;;;27.88;4.07;;;9.40;95.80;;;;;;4834020;29;20054;-79
2023/01/05 00:36:30;;;;;;;32.63;4.18;;;9.40;95.70;;;;;;4838423;29;20042;-78
2023/01/05 00:38:55;;;;;;;26.30;3.95;;;9.40;95.70;;;;;;4825732;29;20050;-79
2023/01/05 00:41:21;;;;;;;28.65;4.05;;;9.40;95.70;;;;;;4836598;29;20410;-79
2023/01/05 00:43:46;;;;;;;30.10;4.18;;;9.40;95.60;;;;;;4843971;29;20050;-79
2023/01/05 00:46:12;;;;;;;25.95;3.95;;;9.40;95.70;;;;;;4838251;29;20054;-80
2023/01/05 00:48:37;;;;;;;31.48;4.47;;;9.40;95.70;;;;;;4834390;29;20054;-79
2023/01/05 00:51:03;;;;;;;28.63;4.53;;;9.40;95.70;;;;;;4834122;29;20073;-79
2023/01/05 00:53:29;;;;;;;24.98;4.10;;;9.40;95.70;;;;;;4838682;29;20042;-80
2023/01/05 00:55:56;;;;;;;33.42;4.80;;;9.30;95.80;;;;;;4833871;29;20085;-79
2023/01/05 00:58:21;;;;;;;31.20;4.72;;;9.30;95.80;;;;;;4837595;29;20050;-76
2023/01/05 01:00:47;;;;;;;25.25;4.57;;;9.40;95.90;;;;;;4827616;29;20127;-77
2023/01/05 01:03:13;;;;;;;33.58;5.20;;;9.30;95.80;;;;;;4831347;29;20050;-78
2023/01/05 01:05:38;;;;;;;35.60;4.40;;;9.40;95.90;;;;;;4833432;29;20061;-78
2023/01/05 01:08:04;;;;;;;32.15;5.00;;;9.30;95.70;;;;;;4817647;29;20407;-79
2023/01/05 01:10:29;;;;;;;35.45;4.70;;;9.30;95.60;;;;;;4824330;29;20095;-78
2023/01/05 01:12:55;;;;;;;32.65;5.25;;;9.40;95.50;;;;;;4832760;29;20069;-78
2023/01/05 01:15:21;;;;;;;28.40;4.05;;;9.30;95.30;;;;;;4827609;29;20445;-80
2023/01/05 01:17:47;;;;;;;34.88;5.32;;;9.40;95.20;;;;;;4830810;29;20050;-80
2023/01/05 01:20:12;;;;;;;29.55;4.45;;;9.40;94.90;;;;;;4832156;29;20038;-80
2023/01/05 01:22:38;;;;;;;35.97;5.10;;;9.50;94.80;;;;;;4832300;29;20052;-79
2023/01/05 01:25:04;;;;;;;32.75;4.78;;;9.50;94.80;;;;;;4834307;29;20049;-79
2023/01/05 01:27:31;;;;;;;28.40;4.07;;;9.50;94.60;;;;;;4832938;29;21104;-77
2023/01/05 01:29:57;;;;;;;29.58;4.28;;;9.50;94.50;;;;;;4833709;29;20450;-78
2023/01/05 01:32:23;;;;;;;32.03;4.05;;;9.50;94.40;;;;;;4832084;29;20415;-80
2023/01/05 01:34:49;;;;;;;31.25;4.13;;;9.50;94.20;;;;;;4835606;29;20506;-80
2023/01/05 01:37:15;;;;;;;30.40;4.38;;;9.60;94.00;;;;;;4834733;29;20132;-79
2023/01/05 01:39:41;;;;;;;28.70;4.18;;;9.60;93.90;;;;;;4822983;29;20060;-79
2023/01/05 01:42:13;;;;;;;21.80;3.28;;;9.70;93.70;;;;;;4838996;29;20062;-80
2023/01/05 01:44:51;;;;;;;32.33;4.05;;;9.60;93.60;;;;;;4836595;29;20114;-79
2023/01/05 01:47:25;;;;;;;34.60;3.85;;;9.70;93.50;;;;;;4827954;29;20510;-78
2023/01/05 01:49:54;;;;;;;30.17;4.53;;;9.70;93.40;;;;;;4836773;29;20054;-79
2023/01/05 01:52:21;;;;;;;18.60;3.58;;;9.70;93.30;;;;;;4837036;29;20057;-78
2023/01/05 01:54:48;;;;;;;28.80;4.50;;;9.70;93.20;;;;;;4834784;29;20395;-79
2023/01/05 01:57:14;;;;;;;33.95;4.10;;;9.70;93.30;;;;;;4844686;29;20065;-78
2023/01/05 01:59:40;;;;;;;27.58;4.63;;;9.70;93.20;;;;;;4841089;29;20073;-79
2023/01/05 02:02:07;;;;;;;23.60;4.30;;;9.70;93.20;;;;;;4839042;29;20137;-78
2023/01/05 02:04:35;;;;;;;23.77;4.28;;;9.70;93.00;;;;;;4829077;29;20046;-79
2023/01/05 02:07:01;;;;;;;25.23;4.75;;;9.70;93.00;;;;;;4844415;29;20486;-78
2023/01/05 02:09:27;;;;;;;30.88;4.53;;;9.70;93.10;;;;;;4842196;29;20038;-78
2023/01/05 02:12:05;;;;;;;28.85;4.40;;;9.70;93.00;;;;;;4849492;29;20041;-78
2023/01/05 02:14:57;;;;;;;30.02;4.45;;;9.70;92.90;;;;;;4826591;29;20774;-79
2023/01/05 02:17:35;;;;;;;31.85;4.15;;;9.80;92.80;;;;;;4844967;29;20053;-79
2023/01/05 02:20:21;;;;;;;32.10;5.15;;;9.70;92.70;;;;;;4848858;29;20090;-78
2023/01/05 02:23:11;;;;;;;25.23;4.25;;;9.70;92.70;;;;;;4833540;29;20062;-79
2023/01/05 02:25:57;;;;;;;24.30;4.13;;;9.70;92.60;;;;;;4835815;29;20054;-79
2023/01/05 02:28:34;;;;;;;38.30;4.78;;;9.70;92.80;;;;;;4842925;29;20042;-79
2023/01/05 02:31:09;;;;;;;34.60;4.65;;;9.70;92.90;;;;;;4838894;29;20106;-79
2023/01/05 02:34:16;;;;;;;28.10;4.18;;;9.70;92.90;;;;;;4835189;29;20049;-79
2023/01/05 02:36:52;;;;;;;30.90;4.53;;;9.70;92.80;;;;;;4847555;29;20057;-78
2023/01/05 02:39:34;;;;;;;28.70;3.72;;;9.60;93.00;;;;;;4829480;29;20077;-79
2023/01/05 02:41:59;;;;;;;29.17;4.97;;;9.60;93.10;;;;;;4829302;29;20089;-79
2023/01/05 02:44:29;;;;;;;27.70;4.57;;;9.60;93.20;;;;;;4823678;29;20111;-80
2023/01/05 02:47:03;;;;;;;29.60;4.30;;;9.60;93.20;;;;;;4851195;29;20045;-80
2023/01/05 02:49:31;;;;;;;29.95;3.83;;;9.50;93.20;;;;;;4842451;29;20118;-80
2023/01/05 02:51:59;;;;;;;31.35;5.20;;;9.50;93.20;;;;;;4845520;29;20061;-81
2023/01/05 02:54:47;;;;;;;30.67;4.60;;;9.50;93.30;;;;;;4825027;29;20046;-80
2023/01/05 02:57:18;;;;;;;32.10;4.03;;;9.50;93.40;;;;;;4830171;29;20060;-80
2023/01/05 02:59:49;;;;;;;22.77;4.13;;;9.40;93.50;;;;;;4836011;29;20050;-81
2023/01/05 03:02:23;;;;;;;24.20;4.28;;;9.40;93.50;;;;;;4834264;29;20049;-78
2023/01/05 03:05:08;;;;;;;32.60;4.57;;;9.40;93.50;;;;;;4829023;29;20125;-77
2023/01/05 03:07:38;;;;;;;25.92;4.35;;;9.40;93.40;;;;;;4834949;29;20623;-77
2023/01/05 03:15:42;;;;;;;32.40;4.40;;;9.30;93.60;;;;;;4818672;29;20062;-79
2023/01/05 03:18:15;;;;;;;34.38;5.22;;;9.30;93.80;;;;;;4828184;29;20045;-78
2023/01/05 03:20:47;;;;;;;39.08;4.93;;;9.30;94.00;;;;;;4833713;29;20060;-78
2023/01/05 03:37:41;;;;;;;36.15;4.40;;;9.30;94.10;;;;;;4823117;29;20058;-78
2023/01/05 03:40:14;;;;;;;31.70;4.65;;;9.30;94.00;;;;;;4835722;29;20102;-78
2023/01/05 03:42:42;;;;;;;28.02;3.70;;;9.30;93.90;;;;;;4834141;29;20114;-79
2023/01/05 03:45:09;;;;;;;33.28;4.38;;;9.40;93.80;;;;;;4834954;29;20064;-78
2023/01/05 03:47:35;;;;;;;21.52;3.53;;;9.40;93.80;;;;;;4841607;29;20054;-78
2023/01/05 03:50:00;;;;;;;21.58;3.97;;;9.40;94.00;;;;;;4823253;29;20052;-79
2023/01/05 03:52:26;;;;;;;28.55;4.90;;;9.40;93.70;;;;;;4833392;29;20045;-79
2023/01/05 03:54:51;;;;;;;26.42;4.35;;;9.50;93.80;;;;;;4827898;29;20049;-78
2023/01/05 03:57:17;;;;;;;24.73;3.72;;;9.40;93.80;;;;;;4835555;29;20064;-78
2023/01/05 03:59:42;;;;;;;31.00;4.60;;;9.50;93.80;;;;;;4830865;29;20042;-78
2023/01/05 04:02:08;;;;;;;25.92;3.95;;;9.40;93.80;;;;;;4826414;29;20889;-77
2023/01/05 04:04:34;;;;;;;21.75;3.45;;;9.50;93.80;;;;;;4836610;29;20048;-79
2023/01/05 04:07:00;;;;;;;32.25;4.65;;;9.50;93.80;;;;;;4842213;29;20168;-78
2023/01/05 04:09:26;;;;;;;26.83;4.68;;;9.50;93.90;;;;;;4833912;29;20487;-79
2023/01/05 04:11:51;;;;;;;32.22;4.60;;;9.50;93.80;;;;;;4836381;29;20592;-78
2023/01/05 04:14:17;;;;;;;36.10;4.90;;;9.60;93.70;;;;;;4834028;29;20054;-79
2023/01/05 04:16:43;;;;;;;30.27;4.50;;;9.50;93.80;;;;;;4843635;29;20050;-78
2023/01/05 04:19:09;;;;;;;31.45;4.85;;;9.50;93.80;;;;;;4831411;29;20129;-79
2023/01/05 04:21:35;;;;;;;32.20;4.70;;;9.50;93.90;;;;;;4836413;29;20059;-79
2023/01/05 04:24:01;;;;;;;32.80;4.63;;;9.40;93.90;;;;;;4834491;29;20045;-79
2023/01/05 04:26:26;;;;;;;38.83;4.95;;;9.50;93.90;;;;;;4837237;29;20099;-77
2023/01/05 04:28:52;;;;;;;31.73;4.80;;;9.50;93.80;;;;;;4830455;29;20082;-79
2023/01/05 04:31:17;;;;;;;37.95;4.57;;;9.50;93.70;;;;;;4831739;29;20066;-78
2023/01/05 04:33:44;;;;;;;34.97;4.93;;;9.50;93.60;;;;;;4819151;29;20106;-79
2023/01/05 04:36:10;;;;;;;28.33;4.65;;;9.50;93.60;;;;;;4838592;29;20406;-79
2023/01/05 04:38:35;;;;;;;25.85;4.57;;;9.50;93.60;;;;;;4833876;29;20510;-78
2023/01/05 04:41:01;;;;;;;29.95;4.70;;;9.50;93.50;;;;;;4840853;29;20060;-79
2023/01/05 04:43:27;;;;;;;33.13;5.15;;;9.50;93.60;;;;;;4830855;29;20063;-79
2023/01/05 04:45:53;;;;;;;31.90;4.43;;;9.50;93.60;;;;;;4824393;29;20038;-79
2023/01/05 04:48:18;;;;;;;42.10;4.72;;;9.50;93.50;;;;;;4834279;29;20041;-79
2023/01/05 04:50:44;;;;;;;26.98;4.18;;;9.50;93.50;;;;;;4839834;29;20517;-79
2023/01/05 04:53:10;;;;;;;31.05;4.50;;;9.50;93.40;;;;;;4824173;29;20042;-79
2023/01/05 04:55:36;;;;;;;31.25;4.72;;;9.50;93.40;;;;;;4810181;29;20491;-78
2023/01/05 04:58:01;;;;;;;34.08;4.95;;;9.50;93.40;;;;;;4831566;29;20088;-79
2023/01/05 05:00:29;;;;;;;24.42;4.05;;;9.60;93.30;;;;;;4830970;29;20049;-79
2023/01/05 05:02:55;;;;;;;30.73;5.05;;;9.50;93.20;;;;;;4833073;29;20050;-79
2023/01/05 05:05:20;;;;;;;25.58;4.35;;;9.60;93.20;;;;;;4832854;29;20052;-78
2023/01/05 05:07:46;;;;;;;32.78;4.32;;;9.60;93.10;;;;;;4832646;29;20466;-78
2023/01/05 05:10:11;;;;;;;34.20;4.43;;;9.60;93.10;;;;;;4832669;29;20577;-79
2023/01/05 05:12:37;;;;;;;32.75;4.63;;;9.60;93.00;;;;;;4832299;29;20100;-78
2023/01/05 05:15:03;;;;;;;24.33;4.53;;;9.60;93.00;;;;;;4832404;29;20046;-78
2023/01/05 05:17:28;;;;;;;27.33;4.28;;;9.60;92.90;;;;;;4829643;29;20094;-77
2023/01/05 05:19:54;;;;;;;27.65;4.10;;;9.60;93.00;;;;;;4837190;29;20046;-78
2023/01/05 05:22:20;;;;;;;25.58;4.00;;;9.60;92.90;;;;;;4835215;29;20422;-77
2023/01/05 05:24:45;;;;;;;24.60;4.63;;;9.60;92.90;;;;;;4821580;29;20053;-79
2023/01/05 05:27:11;;;;;;;28.52;4.65;;;9.60;92.80;;;;;;4833728;29;20146;-79
2023/01/05 05:29:36;;;;;;;28.67;4.47;;;9.60;92.90;;;;;;4831609;29;20448;-79
2023/01/05 05:32:02;;;;;;;32.30;4.32;;;9.60;92.90;;;;;;4833346;29;20048;-78
2023/01/05 05:34:28;;;;;;;24.80;4.30;;;9.60;92.80;;;;;;4844502;29;20118;-79
2023/01/05 05:36:53;;;;;;;33.28;4.60;;;9.60;92.80;;;;;;4837792;29;20057;-78
2023/01/05 05:39:19;;;;;;;30.65;4.25;;;9.60;92.80;;;;;;4844942;29;20049;-78
2023/01/05 05:41:45;;;;;;;29.55;4.90;;;9.60;92.80;;;;;;4838546;29;20086;-78
2023/01/05 05:44:10;;;;;;;27.27;4.35;;;9.60;92.80;;;;;;4842400;29;20141;-79
2023/01/05 05:46:36;;;;;;;24.88;4.07;;;9.70;92.80;;;;;;4831158;29;20053;-78
2023/01/05 05:49:01;;;;;;;20.67;3.50;;;9.60;92.80;;;;;;4810770;29;20102;-78
2023/01/05 05:51:27;;;;;;;30.67;4.13;;;9.60;92.90;;;;;;4841429;29;20062;-79
2023/01/05 05:53:53;;;;;;;23.58;4.22;;;9.60;92.90;;;;;;4827429;29;20510;-79
2023/01/05 05:56:18;;;;;;;29.73;4.18;;;9.60;93.00;;;;;;4834369;29;20042;-79
2023/01/05 05:58:44;;;;;;;27.02;4.68;;;9.60;93.00;;;;;;4835146;29;20041;-78
2023/01/05 06:01:10;;;;;;;27.52;4.60;;;9.60;93.10;;;;;;4836917;29;20101;-78
2023/01/05 06:03:36;;;;;;;27.42;3.95;;;9.60;93.10;;;;;;4841411;29;20110;-78
2023/01/05 06:06:02;;;;;;;26.63;4.38;;;9.60;93.10;;;;;;4836562;29;20046;-78
2023/01/05 06:08:28;;;;;;;35.35;5.20;;;9.60;93.10;;;;;;4843745;29;22466;-77
2023/01/05 06:10:55;;;;;;;30.63;4.78;;;9.60;93.00;;;;;;4841368;29;20548;-78
2023/01/05 06:13:21;;;;;;;29.65;4.53;;;9.60;93.00;;;;;;4841197;29;20042;-78
2023/01/05 06:15:47;;;;;;;28.15;4.75;;;9.60;93.00;;;;;;4835928;29;20046;-78
2023/01/05 06:18:13;;;;;;;31.30;4.97;;;9.60;93.00;;;;;;4839355;29;20041;-78
2023/01/05 06:20:39;;;;;;;24.52;4.35;;;9.70;93.00;;;;;;4845751;29;20056;-77
2023/01/05 06:23:05;;;;;;;26.02;4.93;;;9.60;92.90;;;;;;4837010;29;20051;-77
2023/01/05 06:25:31;;;;;;;28.52;4.38;;;9.70;93.00;;;;;;4839306;29;20061;-79
2023/01/05 06:27:56;;;;;;;26.88;4.35;;;9.70;92.90;;;;;;4836260;29;20165;-79
2023/01/05 06:30:40;;;;;;;28.20;4.25;;;9.60;92.90;;;;;;4848841;29;20118;-79
2023/01/05 06:33:06;;;;;;;26.27;4.68;;;9.60;92.90;;;;;;4842908;29;20065;-77
2023/01/05 06:35:31;;;;;;;30.35;4.68;;;9.70;93.00;;;;;;4836785;29;20049;-77
2023/01/05 06:37:57;;;;;;;31.60;4.28;;;9.60;93.00;;;;;;4834458;29;20519;-78
2023/01/05 06:40:23;;;;;;;32.15;4.15;;;9.60;93.10;;;;;;4832603;29;20970;-79
2023/01/05 06:42:48;;;;;;;26.38;4.28;;;9.60;93.30;;;;;;4822880;29;20148;-79
2023/01/05 06:45:15;;;;;;;31.38;4.28;;;9.50;93.40;;;;;;4835666;29;20091;-78
2023/01/05 06:47:41;;;;;;;38.10;4.30;;;9.50;93.50;;;;;;4827942;29;20057;-79
2023/01/05 06:50:08;;;;;;;22.38;4.18;;;9.50;93.60;;;;;;4836216;29;20576;-79
2023/01/05 06:52:35;;;;;;;27.60;4.10;;;9.40;93.70;;;;;;4825541;29;20073;-79
2023/01/05 06:55:06;;;;;;;33.90;4.18;;;9.40;93.80;;;;;;4821815;29;20041;-79
2023/01/05 06:57:32;;;;;;;31.90;4.45;;;9.30;93.90;;;;;;4838019;29;20041;-79
2023/01/05 06:59:58;;;;;;;37.05;4.82;;;9.30;93.90;;;;;;4826899;29;20106;-82
2023/01/05 07:02:25;;;;;;;27.52;4.10;;;9.30;94.00;;;;;;4830226;29;20062;-81
2023/01/05 07:04:50;;;;;;;29.88;4.20;;;9.40;94.10;;;;;;4812914;29;20481;-81
2023/01/05 07:07:16;;;;;;;32.53;4.72;;;9.30;94.00;;;;;;4836265;29;20045;-82
2023/01/05 07:09:43;;;;;;;28.20;4.05;;;9.30;94.10;;;;;;4837644;29;20124;-82
2023/01/05 07:12:09;;;;;;;33.20;4.22;;;9.30;94.00;;;;;;4815736;29;20050;-76
2023/01/05 07:14:34;;;;;;;24.83;4.05;;;9.30;94.00;;;;;;4831745;29;20066;-75
2023/01/05 07:17:01;;;;;;;33.00;4.53;;;9.30;94.00;;;;;;4834091;29;20580;-76
2023/01/05 07:19:26;;;;;;;31.88;4.38;;;9.30;94.00;;;;;;4833465;29;20049;-76
2023/01/05 07:21:52;;;;;;;27.77;4.68;;;9.30;93.90;;;;;;4819137;29;20513;-75
2023/01/05 07:24:17;;;;;;;21.65;3.65;;;9.30;93.80;;;;;;4831134;29;20136;-74
2023/01/05 07:26:43;;;;;;;28.63;4.40;;;9.30;93.80;;;;;;4826787;29;20061;-74
2023/01/05 07:29:08;;;;;;;23.23;3.40;;;9.30;93.80;;;;;;4824443;29;20599;-74
2023/01/05 07:31:34;;;;;;;25.42;3.95;;;9.30;93.70;;;;;;4834373;29;20469;-74
2023/01/05 07:34:00;;;;;;;35.08;4.20;;;9.40;93.70;;;;;;4832421;29;20089;-74
2023/01/05 07:36:25;;;;;;;21.58;4.05;;;9.30;93.60;;;;;;4827244;29;20069;-76
2023/01/05 07:38:52;;;;;;;22.45;4.20;;;9.40;93.60;;;;;;4833733;29;20422;-74
2023/01/05 07:41:18;;;;;;;31.40;5.13;;;9.40;93.50;;;;;;4833104;29;20235;-75
2023/01/05 07:43:47;;;;;;;27.77;4.25;;;9.40;93.50;;;;;;4833969;29;20050;-74
2023/01/05 07:46:14;;;;;;;23.95;3.95;;;9.40;93.50;;;;;;4831947;29;20410;-76
2023/01/05 07:48:40;;;;;;;20.20;3.50;;;9.40;93.60;;;;;;4834194;29;20049;-76
2023/01/05 07:51:06;;;;;;;21.52;3.78;;;9.40;93.50;;;;;;4835298;29;20514;-76
2023/01/05 07:53:34;;;;;;;28.42;3.50;;;9.40;93.40;;;;;;4832571;29;20034;-75
2023/01/05 07:56:00;;;;;;;29.42;3.45;;;9.40;93.40;;;;;;4833369;29;20435;-75
2023/01/05 07:58:27;;;;;;;23.42;4.03;;;9.40;93.30;;;;;;4832294;29;20065;-74
2023/01/05 08:00:53;;;;;;;25.05;4.03;;;9.40;93.30;;;;;;4834654;29;20540;-74
2023/01/05 08:03:19;;;;;;;25.40;4.07;;;9.40;93.20;;;;;;4833234;29;20043;-76
2023/01/05 08:05:46;;;;;;;22.17;3.53;;;9.50;93.30;;;;;;4833132;29;20095;-75
2023/01/05 08:08:12;;;;;;;30.70;3.47;;;9.40;93.20;;;;;;4833830;29;20057;-74
2023/01/05 08:10:40;;;;;;;26.60;4.30;;;9.40;93.50;;;;;;4833330;29;20042;-76
2023/01/05 08:15:53;;;;;;;27.25;4.00;;;9.50;93.20;;;;;;4833930;29;20054;-76
2023/01/05 08:18:19;;;;;;;20.85;3.47;;;9.50;93.10;;;;;;4822500;29;20062;-75
2023/01/05 08:20:57;;;;;;;24.30;4.00;;;9.40;93.00;;;;;;4819082;29;20089;-76
2023/01/05 08:23:25;;;;;;;25.08;3.65;;;9.50;93.10;;;;;;4834414;29;20063;-76
2023/01/05 08:25:50;;;;;;;16.83;3.42;;;9.50;93.10;;;;;;4832546;29;20065;-75
2023/01/05 08:28:16;;;;;;;21.58;3.42;;;9.50;93.10;;;;;;4828305;29;20038;-76
2023/01/05 08:30:42;;;;;;;19.08;3.08;;;9.50;93.00;;;;;;4833302;29;20133;-75
2023/01/05 08:33:08;;;;;;;20.30;3.53;;;9.50;93.00;;;;;;4834841;29;20084;-76
2023/01/05 08:35:33;;;;;;;27.00;7.22;;;9.50;93.00;;;;;;4833598;29;21150;-76
2023/01/05 08:37:59;;;;;;;20.98;3.13;;;9.50;92.90;;;;;;4830870;29;20547;-76
2023/01/05 08:40:24;;;;;;;25.00;5.15;;;9.50;92.80;;;;;;4834207;29;20054;-74
2023/01/05 08:42:50;;;;;;;28.85;10.52;;;9.50;92.90;;;;;;4831662;29;20554;-76
2023/01/05 08:45:16;;;;;;;20.85;4.65;;;9.50;92.90;;;;;;4834384;29;20458;-75
2023/01/05 08:47:42;;;;;;;26.95;5.53;;;9.50;92.90;;;;;;4834390;29;20430;-76
2023/01/05 08:50:10;;;;;;;31.23;5.93;;;9.50;92.80;;;;;;4831214;29;20038;-75
2023/01/05 08:52:36;;;;;;;23.92;3.55;;;9.50;92.90;;;;;;4833952;29;20403;-75
2023/01/05 08:55:02;;;;;;;22.85;4.07;;;9.50;92.90;;;;;;4832316;29;20054;-75
2023/01/05 08:57:29;;;;;;;24.77;4.70;;;9.60;92.90;;;;;;4833101;29;20065;-76
2023/01/05 08:59:54;;;;;;;22.20;4.25;;;9.50;92.90;;;;;;4834862;29;20041;-76
2023/01/05 09:02:20;;;;;;;27.40;5.25;;;9.50;92.80;;;;;;4834773;29;20097;-77
2023/01/05 09:04:45;;;;;;;25.38;4.00;;;9.50;92.80;;;;;;4834310;29;20092;-77
2023/01/05 09:07:11;;;;;;;22.60;4.47;;;9.50;92.90;;;;;;4820150;29;20170;-74
2023/01/05 09:09:37;;;;;;;21.20;4.63;;;9.50;92.90;;;;;;4825042;29;20446;-76
2023/01/05 09:12:03;;;;;;;22.88;3.95;;;9.60;93.00;;;;;;4829526;29;20508;-76
2023/01/05 09:14:29;;;;;;;17.73;3.50;;;9.50;93.00;;;;;;4829385;29;20522;-76
2023/01/05 09:16:54;;;;;;;24.67;4.40;;;9.50;92.90;;;;;;4831963;29;20057;-77
2023/01/05 09:19:20;;;;;;;20.77;4.03;;;9.50;93.00;;;;;;4831224;29;20058;-75
2023/01/05 09:21:45;;;;;;;25.98;4.95;;;9.50;93.00;;;;;;4828608;29;20065;-74
2023/01/05 09:24:11;;;;;;;25.02;4.50;;;9.60;92.90;;;;;;4823984;29;20438;-75
2023/01/05 09:26:38;;;;;;;20.08;3.78;;;9.60;92.90;;;;;;4832678;29;20046;-75
2023/01/05 09:29:03;;;;;;;19.92;3.28;;;9.60;92.70;;;;;;4832750;29;20084;-76
2023/01/05 09:31:29;;;;;;;21.83;4.15;;;9.60;92.70;;;;;;4832969;29;20482;-75
2023/01/05 09:33:58;;;;;;;20.33;5.05;;;9.60;92.70;;;;;;4832451;29;20067;-76
2023/01/05 09:36:26;;;;;;;20.63;3.42;;;9.60;92.70;;;;;;4834616;29;20050;-75
2023/01/05 09:38:54;;;;;;;24.42;3.53;;;9.60;92.70;;;;;;4834243;29;20050;-74
2023/01/05 09:41:27;;;;;;;17.03;2.90;;;9.70;92.50;;;;;;4832463;29;20053;-76
2023/01/05 09:43:57;;;;;;;20.73;3.67;;;9.70;92.60;;;;;;4832613;29;21612;-75
2023/01/05 09:46:32;;;;;;;20.17;3.53;;;9.70;92.60;;;;;;4817729;29;20401;-77
2023/01/05 09:49:01;;;;;;;20.95;3.72;;;9.70;92.50;;;;;;4833653;29;20052;-77
2023/01/05 09:51:28;;;;;;;23.08;3.65;;;9.70;92.50;;;;;;4832736;29;20050;-79
2023/01/05 09:53:54;;;;;;;22.25;3.50;;;9.70;92.60;;;;;;4833674;29;20620;-76
2023/01/05 09:56:23;;;;;;;21.80;3.78;;;9.70;92.70;;;;;;4832611;29;20045;-75
2023/01/05 09:58:50;;;;;;;22.48;3.85;;;9.70;92.60;;;;;;4828479;29;20106;-75
2023/01/05 10:01:17;;;;;;;21.33;3.40;;;9.70;92.50;;;;;;4826852;29;20141;-75
2023/01/05 10:03:55;;;;;;;23.38;3.70;;;9.70;92.60;;;;;;4832501;29;20110;-75
2023/01/05 10:06:31;;;;;;;21.45;3.35;;;9.80;92.70;;;;;;4836483;29;20038;-79
2023/01/05 10:08:57;;;;;;;22.05;4.20;;;9.80;92.70;;;;;;4835623;29;20058;-75
2023/01/05 10:14:35;;;;;;;23.83;3.60;;;9.80;92.40;;;;;;4835900;29;20057;-77
2023/01/05 10:17:01;;;;;;;27.88;3.55;;;9.80;92.40;;;;;;4835622;29;20046;-77
2023/01/05 10:19:28;;;;;;;22.27;3.55;;;9.80;92.40;;;;;;4835217;29;20510;-78
2023/01/05 10:22:14;;;;;;;20.73;3.50;;;9.80;92.50;;;;;;4833930;29;20053;-78
2023/01/05 10:25:14;;;;;;;29.33;4.05;;;9.90;92.40;;;;;;4835614;29;20048;-76
2023/01/05 10:28:14;;;;;;;29.23;3.30;;;9.90;92.40;;;;;;4836320;29;20048;-76
2023/01/05 10:30:51;;;;;;;21.83;3.25;;;9.80;92.30;;;;;;4835497;29;20046;-77
2023/01/05 10:33:48;;;;;;;28.20;4.03;;;9.80;92.20;;;;;;4835492;29;20042;-75
2023/01/05 10:36:35;;;;;;;16.83;3.20;;;9.80;92.10;;;;;;4836291;29;20124;-76
2023/01/05 10:39:15;;;;;;;20.83;3.70;;;9.80;92.10;;;;;;4833743;29;20062;-75
2023/01/05 10:42:04;;;;;;;16.92;2.88;;;9.80;92.30;;;;;;4834808;29;20133;-75
2023/01/05 10:44:54;;;;;;;20.88;3.53;;;9.80;92.20;;;;;;4821108;29;20370;-75
2023/01/05 10:47:22;;;;;;;16.58;3.20;;;9.70;92.00;;;;;;4834835;29;20054;-75
2023/01/05 10:49:48;;;;;;;19.17;2.67;;;9.70;92.10;;;;;;4835599;29;20529;-75
2023/01/05 10:52:19;;;;;;;14.85;2.42;;;9.80;91.80;;;;;;4819825;29;20089;-75
2023/01/05 10:55:00;;;;;;;15.80;2.72;;;9.70;91.70;;;;;;4835218;29;20146;-76
2023/01/05 10:57:32;;;;;;;24.20;2.80;;;9.70;91.60;;;;;;4834975;29;20053;-74
2023/01/05 11:00:19;;;;;;;18.45;3.03;;;9.70;92.00;;;;;;4833933;29;20563;-74
2023/01/05 11:02:59;;;;;;;22.00;3.42;;;9.70;92.20;;;;;;4836116;29;20041;-76
2023/01/05 11:05:36;;;;;;;25.88;3.70;;;9.60;92.40;;;;;;4834991;29;20044;-75
2023/01/05 11:08:12;;;;;;;21.23;3.28;;;9.60;92.60;;;;;;4834681;29;20069;-74
2023/01/05 11:10:46;;;;;;;22.33;3.08;;;9.60;92.80;;;;;;4836652;29;20589;-76
2023/01/05 11:13:15;;;;;;;18.85;3.17;;;9.50;92.90;;;;;;4832189;29;20525;-75
2023/01/05 11:15:45;;;;;;;24.73;3.53;;;9.50;93.10;;;;;;4835256;29;20050;-76
2023/01/05 11:18:55;;;;;;;22.27;3.35;;;9.40;93.40;;;;;;4834709;29;20085;-75
2023/01/05 11:21:23;;;;;;;18.60;3.00;;;9.30;93.80;;;;;;4824265;29;20070;-75
2023/01/05 11:23:52;;;;;;;19.38;3.28;;;9.30;93.60;;;;;;4834507;29;20514;-75
2023/01/05 11:26:17;;;;;;;19.83;3.50;;;9.30;94.00;;;;;;4818641;29;20049;-74
2023/01/05 11:29:07;;;;;;;31.48;4.05;;;9.30;94.00;;;;;;4825727;29;20887;-73
2023/01/05 11:31:50;;;;;;;24.40;4.18;;;9.30;94.20;;;;;;4839628;29;20625;-72
2023/01/05 11:34:25;;;;;;;23.50;4.05;;;9.30;94.30;;;;;;4833940;29;20346;-74
2023/01/05 11:36:54;;;;;;;28.95;4.18;;;9.30;94.20;;;;;;4835144;29;20188;-73
2023/01/05 11:39:30;;;;;;;24.13;3.85;;;9.40;94.40;;;;;;4832281;29;20160;-74
2023/01/05 11:42:23;;;;;;;20.60;3.60;;;9.40;94.50;;;;;;4832802;29;20105;-73
2023/01/05 11:45:23;;;;;;;20.52;3.25;;;9.50;94.20;;;;;;4819802;29;20473;-74
2023/01/05 11:47:53;;;;;;;17.00;2.40;;;9.60;93.40;;;;;;4833808;29;20141;-74
2023/01/05 11:50:20;;;;;;;11.88;2.50;;;9.70;93.20;;;;;;4833417;29;20110;-74
2023/01/05 11:53:25;;;;;;;9.63;2.15;;;9.70;92.90;;;;;;4832559;29;20057;-74
2023/01/05 11:56:01;;;;;;;8.45;1.65;;;9.80;92.20;;;;;;4828305;29;20058;-73
2023/01/05 11:58:32;;;;;;;5.53;1.30;;;9.80;92.10;;;;;;4833025;29;20049;-74
2023/01/05 12:01:20;;;;;;;7.97;1.55;;;9.80;91.80;;;;;;4831917;29;20066;-74
2023/01/05 12:04:34;;;;;;;8.75;1.70;;;9.80;91.70;;;;;;4817628;29;20865;-75
2023/01/05 12:07:11;;;;;;;8.52;2.13;;;9.80;91.50;;;;;;4818033;29;20053;-74
2023/01/05 12:09:40;;;;;;;10.25;3.05;;;9.80;91.80;;;;;;4823927;29;20042;-73
2023/01/05 12:12:29;;;;;;;12.75;3.00;;;9.90;91.60;;;;;;4834601;29;20053;-74
2023/01/05 12:15:03;;;;;;;11.45;2.42;;;9.80;91.70;;;;;;4833801;29;20384;-76
2023/01/05 12:17:54;;;;;;;16.83;2.55;;;9.90;91.60;;;;;;4835034;29;20163;-74
2023/01/05 12:20:42;;;;;;;9.85;1.83;;;10.00;91.60;;;;;;4833049;29;20783;-75
2023/01/05 12:23:16;;;;;;;15.35;2.78;;;10.10;91.40;;;;;;4816376;29;20037;-76
2023/01/05 12:25:59;;;;;;;14.48;2.03;;;10.10;91.50;;;;;;4833549;29;20124;-75
2023/01/05 12:28:24;;;;;;;11.90;2.47;;;10.20;91.30;;;;;;4827670;29;20046;-75
2023/01/05 12:31:24;;;;;;;14.48;2.50;;;10.30;91.10;;;;;;4832177;29;20426;-74
2023/01/05 12:34:15;;;;;;;16.27;2.58;;;10.40;91.10;;;;;;4831883;29;20137;-75
2023/01/05 12:36:47;;;;;;;20.55;4.18;;;10.40;91.10;;;;;;4826757;29;20053;-74
2023/01/05 12:39:36;;;;;;;14.60;2.95;;;10.50;91.00;;;;;;4823652;29;20039;-74
2023/01/05 12:42:17;;;;;;;14.77;2.63;;;10.50;90.90;;;;;;4826597;29;20074;-74
2023/01/05 12:45:21;;;;;;;23.70;2.90;;;10.40;90.90;;;;;;4809160;29;20050;-74
2023/01/05 12:47:51;;;;;;;14.50;3.10;;;10.40;90.90;;;;;;4824405;29;20054;-74
2023/01/05 12:50:19;;;;;;;15.90;3.08;;;10.50;91.00;;;;;;4830421;29;20057;-75
2023/01/05 12:52:50;;;;;;;26.58;4.30;;;10.50;90.90;;;;;;4833031;29;20054;-75
2023/01/05 12:55:22;;;;;;;16.02;3.58;;;10.50;91.00;;;;;;4833534;29;20133;-74
2023/01/05 12:58:02;;;;;;;26.45;6.97;;;10.50;90.90;;;;;;4832327;29;20105;-74
2023/01/05 13:00:32;;;;;;;24.27;6.57;;;10.40;91.30;;;;;;4832961;29;20037;-73
2023/01/05 13:03:00;;;;;;;28.52;6.97;;;10.40;91.00;;;;;;4828520;29;20502;-74
2023/01/05 13:05:39;;;;;;;20.30;7.03;;;10.40;91.10;;;;;;4832651;29;20058;-75
2023/01/05 13:08:21;;;;;;;25.13;8.35;;;10.30;90.90;;;;;;4834243;29;20452;-73
2023/01/05 13:10:55;;;;;;;24.75;5.20;;;10.40;91.10;;;;;;4832695;29;20056;-73
2023/01/05 13:13:28;;;;;;;20.67;5.15;;;10.30;91.30;;;;;;4826355;29;20054;-78
2023/01/05 13:16:02;;;;;;;23.77;6.93;;;10.30;91.40;;;;;;4818036;29;20061;-74
2023/01/05 13:18:30;;;;;;;26.17;8.20;;;10.30;91.50;;;;;;4832637;29;20523;-77
2023/01/05 13:21:00;;;;;;;17.55;5.38;;;10.30;91.60;;;;;;4833280;29;20952;-74
2023/01/05 13:23:37;;;;;;;18.27;4.10;;;10.20;91.60;;;;;;4815643;29;20097;-74
2023/01/05 13:26:20;;;;;;;20.70;5.63;;;10.20;91.70;;;;;;4832880;29;20050;-73
2023/01/05 13:28:48;;;;;;;28.92;7.20;;;10.20;92.00;;;;;;4833142;29;20058;-74
2023/01/05 13:31:28;;;;;;;22.27;4.50;;;10.10;92.10;;;;;;4832733;29;20053;-75
2023/01/05 13:34:21;;;;;;;28.33;7.65;;;10.10;91.90;;;;;;4834871;29;20083;-74
2023/01/05 13:37:02;;;;;;;21.58;5.85;;;10.10;91.90;;;;;;4834936;29;20053;-75
2023/01/05 13:39:42;;;;;;;28.00;5.90;;;10.10;91.90;;;;;;4835665;29;20085;-74
2023/01/05 13:42:20;;;;;;;25.80;6.85;;;10.10;92.30;;;;;;4835666;29;20054;-75